Terminal Aerodrome Forecast
Issued by NWS

Home | Current Version | Previous Version | Text Only | Print | Product List | Glossary On
Versions: 1 2 3 4 5 6 7 8 9 10 11 12 13 14 15 16 17 18 19
000
FTUS44 KTSA 071907 AAA
TAFXNA
TAF AMD
KXNA 071907Z 0719/0818 18006KT 5SM RA BR VCTS BKN005 OVC010CB
      TEMPO 0719/0723 2SM +RA OVC005
     FM080000 32003KT 4SM RA BR SCT010 OVC025
      TEMPO 0800/0804 1SM +RA BKN010 OVC025
     FM080600 16008KT 3SM RA BR OVC015
     FM081200 20015KT 2SM -RA OVC010=

USA.gov is the U.S. government's official web portal to all federal, state and local government web resources and services.